Time;durP1;ratioP1;P1;durP2;ratioP2;P2;SDS_P1;SDS_P2;PMS_P1;PMS_P2;Temp;Humidity;BMP_temperature;BMP_pressure;BME280_temperature;BME280_humidity;BME280_pressure;Samples;Min_cycle;Max_cycle;Signal;HPM_P1;HPM_P2
2023/07/07 00:01:33;;;;;;;3.55;3.25;;;22.70;99.90;;;;;;5069978;28;20202;-73
2023/07/07 00:04:00;;;;;;;2.70;2.50;;;22.60;99.90;;;;;;5069597;28;20798;-72
2023/07/07 00:06:27;;;;;;;4.22;2.67;;;22.50;99.90;;;;;;5070090;28;20237;-71
2023/07/07 00:08:55;;;;;;;7.45;3.75;;;22.50;99.90;;;;;;5070110;28;20308;-70
2023/07/07 00:11:22;;;;;;;3.75;2.75;;;22.30;99.90;;;;;;5070241;28;20210;-70
2023/07/07 00:13:49;;;;;;;4.78;3.55;;;22.30;99.90;;;;;;5070658;28;20237;-70
2023/07/07 00:16:19;;;;;;;4.90;2.78;;;22.30;99.90;;;;;;5069937;28;20210;-72
2023/07/07 00:18:47;;;;;;;4.38;3.50;;;22.30;99.90;;;;;;5070080;28;20206;-71
2023/07/07 00:21:14;;;;;;;3.53;2.88;;;22.30;99.90;;;;;;5055888;28;20238;-73
2023/07/07 00:23:41;;;;;;;3.08;2.78;;;22.30;99.90;;;;;;5069737;28;20249;-70
2023/07/07 00:26:10;;;;;;;3.30;2.95;;;22.20;99.90;;;;;;5070144;28;20311;-70
2023/07/07 00:28:37;;;;;;;5.05;3.83;;;22.20;99.90;;;;;;5069311;28;20234;-70
2023/07/07 00:31:04;;;;;;;4.63;3.13;;;22.30;99.90;;;;;;5069533;28;20755;-70
2023/07/07 00:33:30;;;;;;;3.47;3.17;;;22.20;99.90;;;;;;5069455;28;20237;-70
2023/07/07 00:35:59;;;;;;;3.35;2.58;;;22.20;99.90;;;;;;5070132;28;20238;-70
2023/07/07 00:38:26;;;;;;;3.90;3.00;;;22.20;99.90;;;;;;5069506;28;20241;-69
2023/07/07 00:40:54;;;;;;;4.47;2.78;;;22.20;99.90;;;;;;5069764;28;20206;-70
2023/07/07 00:43:22;;;;;;;3.13;2.35;;;22.20;99.90;;;;;;5069722;28;20562;-69
2023/07/07 00:45:49;;;;;;;3.03;2.72;;;22.10;99.90;;;;;;5069758;28;20279;-70
2023/07/07 00:48:20;;;;;;;3.33;3.03;;;22.10;99.90;;;;;;5070881;28;20271;-70
2023/07/07 00:50:51;;;;;;;3.80;3.28;;;22.00;99.90;;;;;;5072955;28;20693;-70
2023/07/07 00:53:20;;;;;;;4.40;3.03;;;22.00;99.90;;;;;;5073540;28;20682;-72
2023/07/07 00:55:52;;;;;;;5.05;2.30;;;22.00;99.90;;;;;;5073068;28;20284;-69
2023/07/07 00:58:22;;;;;;;2.63;2.42;;;22.00;99.90;;;;;;5073595;28;20295;-69
2023/07/07 01:00:53;;;;;;;3.20;2.63;;;21.90;99.90;;;;;;5073125;28;20712;-69
2023/07/07 01:03:23;;;;;;;3.15;2.38;;;22.00;99.90;;;;;;5073459;28;20256;-70
2023/07/07 01:05:53;;;;;;;4.40;2.80;;;22.00;99.90;;;;;;5073273;28;20261;-69
2023/07/07 01:08:21;;;;;;;3.03;2.72;;;22.00;99.90;;;;;;5073341;28;20206;-70
2023/07/07 01:10:48;;;;;;;3.50;2.65;;;21.90;99.90;;;;;;5073255;28;20238;-70
2023/07/07 01:13:15;;;;;;;3.75;2.58;;;21.90;99.90;;;;;;5073605;28;20217;-70
2023/07/07 01:15:53;;;;;;;2.90;2.60;;;22.00;99.90;;;;;;5072361;28;20241;-69
2023/07/07 01:18:31;;;;;;;4.25;2.60;;;22.00;99.90;;;;;;5073125;28;20234;-74
2023/07/07 01:21:04;;;;;;;3.47;3.17;;;21.90;99.90;;;;;;5060463;28;20604;-70
2023/07/07 01:24:08;;;;;;;4.47;4.00;;;21.90;99.90;;;;;;5071325;28;20230;-70
2023/07/07 01:27:12;;;;;;;4.07;2.70;;;21.90;99.90;;;;;;5072296;28;20236;-70
2023/07/07 01:30:05;;;;;;;3.22;2.28;;;21.90;99.90;;;;;;5041517;28;20209;-69
2023/07/07 01:32:36;;;;;;;3.70;2.60;;;21.80;99.90;;;;;;5072171;28;20309;-69
2023/07/07 01:35:11;;;;;;;4.32;3.83;;;21.70;99.90;;;;;;5072703;28;20245;-70
2023/07/07 01:37:37;;;;;;;4.43;2.38;;;21.60;99.90;;;;;;5072348;28;20241;-69
2023/07/07 01:40:06;;;;;;;3.28;2.97;;;21.60;99.90;;;;;;5072523;28;20206;-69
2023/07/07 01:42:40;;;;;;;3.22;2.72;;;21.60;99.90;;;;;;5072408;28;20256;-70
2023/07/07 01:45:14;;;;;;;4.45;2.65;;;21.50;99.90;;;;;;5072223;28;20329;-69
2023/07/07 01:47:50;;;;;;;4.45;2.78;;;21.50;99.90;;;;;;5071948;28;20677;-70
2023/07/07 01:50:21;;;;;;;3.20;2.65;;;21.40;99.90;;;;;;5072150;28;20649;-70
2023/07/07 01:52:53;;;;;;;3.90;2.50;;;21.40;99.90;;;;;;5072543;28;20210;-69
2023/07/07 01:55:23;;;;;;;5.07;2.65;;;21.40;99.90;;;;;;5072246;28;20240;-70
2023/07/07 01:57:53;;;;;;;4.65;3.33;;;21.30;99.90;;;;;;5064032;28;20233;-69
2023/07/07 02:00:21;;;;;;;3.53;2.75;;;21.40;99.90;;;;;;5071944;28;20245;-71
2023/07/07 02:02:52;;;;;;;5.70;2.80;;;21.40;99.90;;;;;;5057875;28;20657;-72
2023/07/07 02:05:19;;;;;;;3.65;2.05;;;21.40;99.90;;;;;;5067626;28;20254;-70
2023/07/07 02:07:46;;;;;;;2.53;2.20;;;21.30;99.90;;;;;;5063021;28;20206;-71
2023/07/07 02:10:13;;;;;;;4.20;2.72;;;21.40;99.90;;;;;;5071800;28;20746;-73
2023/07/07 02:12:40;;;;;;;2.92;2.25;;;21.50;99.90;;;;;;5071334;28;20250;-69
2023/07/07 02:15:08;;;;;;;4.32;2.63;;;21.50;99.90;;;;;;5057361;28;20207;-69
2023/07/07 02:17:35;;;;;;;4.22;2.42;;;21.50;99.90;;;;;;5071180;28;20237;-69
2023/07/07 02:20:04;;;;;;;5.35;2.78;;;21.50;99.90;;;;;;5071863;28;20261;-70
2023/07/07 02:22:31;;;;;;;5.55;2.97;;;21.50;99.90;;;;;;5071540;28;20207;-69
2023/07/07 02:24:58;;;;;;;5.43;3.17;;;21.60;99.90;;;;;;5071332;28;20258;-70
2023/07/07 02:27:25;;;;;;;3.25;2.30;;;21.50;99.90;;;;;;5070637;28;20237;-70
2023/07/07 02:29:52;;;;;;;3.47;2.13;;;21.50;99.90;;;;;;5071167;28;20241;-70
2023/07/07 02:32:19;;;;;;;2.90;2.20;;;21.40;99.90;;;;;;5057495;28;20250;-70
2023/07/07 02:34:47;;;;;;;3.13;2.13;;;21.40;99.90;;;;;;5071428;28;20290;-74
2023/07/07 02:37:16;;;;;;;5.78;2.33;;;21.40;99.90;;;;;;5071426;28;20232;-71
2023/07/07 02:39:45;;;;;;;3.92;2.30;;;21.30;99.90;;;;;;5070862;28;20206;-69
2023/07/07 02:42:13;;;;;;;2.35;1.98;;;21.40;99.90;;;;;;5070802;28;20260;-72
2023/07/07 02:44:40;;;;;;;2.90;2.15;;;21.30;99.90;;;;;;5070957;28;20262;-69
2023/07/07 02:47:07;;;;;;;3.58;2.35;;;21.40;99.90;;;;;;5071363;28;20245;-70
2023/07/07 02:49:34;;;;;;;2.95;2.65;;;21.40;99.90;;;;;;5070690;28;20249;-70
2023/07/07 02:52:01;;;;;;;3.90;1.92;;;21.40;99.90;;;;;;5071276;28;20242;-74
2023/07/07 02:54:29;;;;;;;3.78;2.65;;;21.30;99.90;;;;;;5070482;28;20252;-70
2023/07/07 02:56:56;;;;;;;3.05;2.15;;;21.30;99.90;;;;;;5070849;28;20291;-69
2023/07/07 02:59:23;;;;;;;2.90;2.08;;;21.30;99.90;;;;;;5070613;28;20242;-70
2023/07/07 03:01:50;;;;;;;2.72;2.28;;;21.30;99.90;;;;;;5071219;28;20237;-70
2023/07/07 03:04:17;;;;;;;2.13;1.90;;;21.30;99.90;;;;;;5071302;28;20202;-70
2023/07/07 03:06:44;;;;;;;4.95;2.50;;;21.30;99.90;;;;;;5055975;28;20799;-70
2023/07/07 03:09:11;;;;;;;3.53;2.30;;;21.20;99.90;;;;;;5070741;28;20245;-73
2023/07/07 03:11:39;;;;;;;2.85;2.15;;;21.30;99.90;;;;;;5069308;28;20214;-74
2023/07/07 03:14:06;;;;;;;2.67;2.10;;;21.20;99.90;;;;;;5070880;28;20234;-70
2023/07/07 03:16:33;;;;;;;3.95;2.33;;;21.00;99.90;;;;;;5070247;28;20213;-70
2023/07/07 03:19:02;;;;;;;4.55;2.47;;;20.90;99.90;;;;;;5070701;28;20240;-73
2023/07/07 03:21:31;;;;;;;2.92;2.17;;;20.90;99.90;;;;;;5070089;28;20643;-69
2023/07/07 03:23:58;;;;;;;2.80;2.38;;;20.90;99.90;;;;;;5070538;28;20205;-74
2023/07/07 03:26:27;;;;;;;6.90;2.40;;;20.90;99.90;;;;;;5070237;28;20259;-70
2023/07/07 03:28:56;;;;;;;3.65;2.30;;;20.90;99.90;;;;;;5070450;28;20263;-70
2023/07/07 03:31:25;;;;;;;4.65;2.28;;;20.80;99.90;;;;;;5070543;28;20238;-70
2023/07/07 03:33:53;;;;;;;3.25;2.80;;;20.80;99.90;;;;;;5070320;28;20214;-70
2023/07/07 03:36:23;;;;;;;2.95;2.53;;;21.00;99.90;;;;;;5070617;28;20252;-70
2023/07/07 03:38:50;;;;;;;4.10;1.90;;;21.00;99.90;;;;;;5070818;28;20202;-70
2023/07/07 03:41:19;;;;;;;5.47;3.00;;;21.00;99.90;;;;;;5070752;28;20237;-70
2023/07/07 03:43:46;;;;;;;4.22;3.10;;;21.00;99.90;;;;;;5070451;28;20242;-70
2023/07/07 03:46:16;;;;;;;4.93;2.58;;;21.00;99.90;;;;;;5070395;28;20478;-69
2023/07/07 03:48:43;;;;;;;3.53;2.10;;;21.00;99.90;;;;;;5070243;28;20213;-70
2023/07/07 03:51:12;;;;;;;2.53;2.30;;;20.90;99.90;;;;;;5070059;28;20267;-70
2023/07/07 03:53:39;;;;;;;3.40;3.00;;;20.80;99.90;;;;;;5069973;28;20207;-70
2023/07/07 03:56:06;;;;;;;3.40;2.13;;;20.80;99.90;;;;;;5070145;28;20230;-71
2023/07/07 03:58:33;;;;;;;2.95;2.40;;;20.80;99.90;;;;;;5070089;28;20288;-71
2023/07/07 04:01:01;;;;;;;3.05;1.92;;;20.80;99.90;;;;;;5063208;28;20241;-74
2023/07/07 04:03:30;;;;;;;5.95;2.03;;;20.80;99.90;;;;;;5061565;28;20706;-72
2023/07/07 04:05:57;;;;;;;2.72;2.22;;;20.80;99.90;;;;;;5054131;28;20265;-70
2023/07/07 04:08:26;;;;;;;4.07;1.98;;;20.70;99.90;;;;;;5068062;28;20210;-70
2023/07/07 04:11:00;;;;;;;4.10;2.42;;;20.80;99.90;;;;;;5070379;28;20263;-70
2023/07/07 04:13:28;;;;;;;2.88;2.30;;;20.80;99.90;;;;;;5069802;28;20201;-69
2023/07/07 04:15:59;;;;;;;3.63;2.17;;;20.80;99.90;;;;;;5070011;28;20237;-69
2023/07/07 04:18:26;;;;;;;2.70;2.30;;;20.80;99.90;;;;;;5069529;28;21864;-69
2023/07/07 04:20:55;;;;;;;4.18;2.40;;;20.70;99.90;;;;;;5070448;28;20290;-70
2023/07/07 04:23:22;;;;;;;3.75;2.00;;;20.60;99.90;;;;;;5070827;28;20202;-70
2023/07/07 04:25:51;;;;;;;2.63;2.25;;;20.60;99.90;;;;;;5075180;28;20265;-86
2023/07/07 04:28:18;;;;;;;2.10;1.90;;;20.40;99.90;;;;;;5074946;28;20233;-82
2023/07/07 04:30:50;;;;;;;3.45;2.58;;;20.50;99.90;;;;;;5075001;28;20202;-86
2023/07/07 04:33:17;;;;;;;3.08;2.00;;;20.60;99.90;;;;;;5074954;28;20214;-85
2023/07/07 04:35:44;;;;;;;3.83;2.15;;;20.70;99.90;;;;;;5074412;28;20222;-85
2023/07/07 04:38:12;;;;;;;5.38;2.45;;;20.80;99.90;;;;;;5074762;28;20203;-85
2023/07/07 04:40:39;;;;;;;3.25;2.60;;;20.80;99.90;;;;;;5074124;28;20202;-82
2023/07/07 04:43:06;;;;;;;4.90;2.17;;;20.80;99.90;;;;;;5074775;28;20255;-86
2023/07/07 04:45:34;;;;;;;3.80;2.83;;;20.80;99.90;;;;;;5073979;28;20230;-86
2023/07/07 04:48:01;;;;;;;4.20;2.30;;;20.80;99.90;;;;;;5074774;28;20202;-85
2023/07/07 04:50:28;;;;;;;4.28;2.50;;;20.80;99.90;;;;;;5073936;28;20271;-86
2023/07/07 04:52:55;;;;;;;6.13;3.83;;;20.80;99.90;;;;;;5074331;28;20649;-86
2023/07/07 04:55:23;;;;;;;2.80;2.35;;;20.70;99.90;;;;;;5074177;28;20237;-85
2023/07/07 04:57:50;;;;;;;3.80;3.40;;;20.70;99.90;;;;;;5074041;28;20206;-80
2023/07/07 05:00:18;;;;;;;2.90;2.38;;;20.70;99.90;;;;;;5074406;28;20210;-86
2023/07/07 05:02:45;;;;;;;2.55;2.20;;;20.50;99.90;;;;;;5073199;28;20242;-72
2023/07/07 05:05:13;;;;;;;2.67;2.17;;;20.60;99.90;;;;;;5067202;28;20211;-70
2023/07/07 05:07:40;;;;;;;2.67;2.10;;;20.60;99.90;;;;;;5065049;28;20619;-72
2023/07/07 05:10:08;;;;;;;3.28;2.53;;;20.50;99.90;;;;;;5072993;28;20226;-72
2023/07/07 05:12:36;;;;;;;3.85;2.75;;;20.50;99.90;;;;;;5072907;28;20238;-71
2023/07/07 05:15:03;;;;;;;6.22;2.90;;;20.60;99.90;;;;;;5072821;28;20657;-72
2023/07/07 05:17:30;;;;;;;4.40;3.33;;;20.50;99.90;;;;;;5072768;28;20214;-72
2023/07/07 05:19:57;;;;;;;2.83;2.30;;;20.60;99.90;;;;;;5073016;28;20237;-72
2023/07/07 05:22:24;;;;;;;3.08;2.70;;;20.50;99.90;;;;;;5072449;28;20241;-72
2023/07/07 05:24:51;;;;;;;3.25;2.72;;;20.50;99.90;;;;;;5072712;28;20244;-72
2023/07/07 05:27:18;;;;;;;4.03;3.08;;;20.70;99.90;;;;;;5073275;28;20728;-70
2023/07/07 05:29:46;;;;;;;4.03;2.60;;;20.70;99.90;;;;;;5072697;28;20295;-72
2023/07/07 05:32:13;;;;;;;3.58;2.92;;;20.60;99.90;;;;;;5072524;28;20233;-72
2023/07/07 05:34:40;;;;;;;3.72;2.60;;;20.70;99.90;;;;;;5071670;28;20259;-71
2023/07/07 05:37:08;;;;;;;3.40;2.40;;;20.80;99.90;;;;;;5072085;28;20241;-72
2023/07/07 05:39:35;;;;;;;2.70;2.50;;;20.70;99.90;;;;;;5072333;28;20213;-71
2023/07/07 05:42:02;;;;;;;4.30;2.20;;;20.80;99.90;;;;;;5072277;28;20621;-71
2023/07/07 05:44:29;;;;;;;3.10;2.67;;;20.90;99.90;;;;;;5072425;28;20202;-71
2023/07/07 05:46:57;;;;;;;7.93;2.97;;;21.00;99.90;;;;;;5072594;28;20325;-71
2023/07/07 05:49:24;;;;;;;2.78;2.58;;;21.10;99.90;;;;;;5072075;28;20209;-71
2023/07/07 05:51:51;;;;;;;2.97;2.67;;;21.10;99.90;;;;;;5071725;28;20229;-72
2023/07/07 05:54:18;;;;;;;2.70;2.45;;;21.20;99.90;;;;;;5072179;28;20677;-70
2023/07/07 05:56:45;;;;;;;4.90;3.15;;;21.10;99.90;;;;;;5071984;28;20237;-72
2023/07/07 05:59:12;;;;;;;3.85;2.35;;;21.20;99.90;;;;;;5072126;28;20256;-72
2023/07/07 06:01:39;;;;;;;3.55;3.20;;;21.30;99.90;;;;;;5071920;28;20240;-70
2023/07/07 06:04:07;;;;;;;3.17;2.50;;;21.40;99.90;;;;;;5071811;28;20202;-71
2023/07/07 06:06:34;;;;;;;4.22;2.55;;;21.40;99.90;;;;;;5057118;28;20689;-72
2023/07/07 06:09:01;;;;;;;4.43;2.70;;;21.30;99.90;;;;;;5072326;28;20202;-73
2023/07/07 06:11:28;;;;;;;3.42;2.67;;;21.30;99.90;;;;;;5071455;28;20237;-70
2023/07/07 06:13:55;;;;;;;3.35;2.47;;;21.40;99.90;;;;;;5069340;28;20234;-72
2023/07/07 06:16:22;;;;;;;3.58;3.22;;;21.40;99.90;;;;;;5059198;28;20291;-73
2023/07/07 06:18:49;;;;;;;2.92;2.65;;;21.60;99.90;;;;;;5071245;28;20234;-72
2023/07/07 06:21:17;;;;;;;3.85;2.42;;;21.60;99.90;;;;;;5060001;28;20202;-70
2023/07/07 06:23:44;;;;;;;5.03;3.33;;;21.60;99.90;;;;;;5053795;28;20210;-68
2023/07/07 06:26:11;;;;;;;8.27;2.80;;;21.80;99.90;;;;;;5053966;28;20262;-71
2023/07/07 06:28:38;;;;;;;3.17;2.67;;;21.90;99.90;;;;;;5057960;28;20694;-72
2023/07/07 06:31:05;;;;;;;2.58;2.33;;;22.00;99.90;;;;;;5056420;28;20685;-71
2023/07/07 06:33:32;;;;;;;4.65;2.75;;;21.90;99.90;;;;;;5061634;28;20218;-71
2023/07/07 06:35:59;;;;;;;3.63;2.88;;;21.90;99.90;;;;;;5059464;28;20211;-72
2023/07/07 06:38:27;;;;;;;3.55;2.63;;;22.10;99.90;;;;;;5065458;28;20621;-72
2023/07/07 06:40:54;;;;;;;5.05;2.88;;;22.20;99.90;;;;;;5056374;28;20202;-72
2023/07/07 06:43:21;;;;;;;5.10;2.90;;;22.30;99.90;;;;;;5060084;28;20682;-71
2023/07/07 06:45:51;;;;;;;4.45;3.03;;;22.30;99.90;;;;;;5059546;28;20207;-71
2023/07/07 06:48:18;;;;;;;4.50;3.17;;;22.50;99.90;;;;;;5056707;28;20203;-74
2023/07/07 06:50:45;;;;;;;4.10;2.92;;;22.60;99.90;;;;;;5050698;28;20214;-72
2023/07/07 06:53:12;;;;;;;6.80;3.00;;;22.90;99.90;;;;;;5051275;28;20230;-72
2023/07/07 06:55:40;;;;;;;3.75;3.13;;;23.50;99.90;;;;;;5055171;28;20234;-77
2023/07/07 06:58:09;;;;;;;3.75;3.03;;;23.00;99.90;;;;;;5051015;28;20206;-74
2023/07/07 07:00:36;;;;;;;2.80;2.30;;;23.00;99.90;;;;;;5050263;28;20211;-76
2023/07/07 07:03:03;;;;;;;4.05;2.33;;;23.10;99.90;;;;;;5050773;28;20744;-73
2023/07/07 07:05:30;;;;;;;4.53;4.00;;;23.20;99.90;;;;;;5050204;28;20242;-73
2023/07/07 07:07:57;;;;;;;2.97;2.67;;;23.20;99.90;;;;;;5065318;28;20755;-77
2023/07/07 07:10:24;;;;;;;6.80;3.70;;;23.40;99.90;;;;;;5070663;28;20268;-74
2023/07/07 07:12:52;;;;;;;6.22;3.58;;;23.50;99.90;;;;;;5070771;28;20241;-69
2023/07/07 07:15:19;;;;;;;6.18;3.90;;;23.50;99.90;;;;;;5070735;28;20245;-71
2023/07/07 07:17:46;;;;;;;4.75;3.10;;;23.70;99.90;;;;;;5070443;28;20701;-69
2023/07/07 07:20:14;;;;;;;3.90;3.38;;;23.70;99.90;;;;;;5070745;28;20214;-79
2023/07/07 07:22:41;;;;;;;4.95;3.72;;;23.90;99.90;;;;;;5070948;28;20291;-84
2023/07/07 07:25:09;;;;;;;3.45;3.15;;;24.00;99.90;;;;;;5070935;28;20206;-81
2023/07/07 07:27:37;;;;;;;3.40;3.10;;;24.10;99.90;;;;;;5070530;28;20229;-82
2023/07/07 07:30:08;;;;;;;8.32;3.63;;;24.30;99.90;;;;;;5067926;28;20233;-81
2023/07/07 07:32:35;;;;;;;5.78;3.80;;;24.40;99.90;;;;;;5062993;28;20224;-78
2023/07/07 07:35:02;;;;;;;3.63;3.33;;;24.70;99.90;;;;;;5053087;28;20633;-86
2023/07/07 07:37:29;;;;;;;5.70;3.33;;;24.80;99.90;;;;;;5054564;28;20246;-73
2023/07/07 07:39:56;;;;;;;7.65;4.50;;;24.50;99.90;;;;;;5050035;28;20211;-71
2023/07/07 07:42:23;;;;;;;6.30;3.40;;;24.80;99.90;;;;;;5050048;28;20231;-71
2023/07/07 07:44:50;;;;;;;4.28;3.88;;;25.60;99.90;;;;;;5050666;28;20242;-75
2023/07/07 07:47:19;;;;;;;6.40;3.90;;;25.10;99.90;;;;;;5050115;28;20270;-75
2023/07/07 07:49:47;;;;;;;4.03;3.42;;;24.80;99.90;;;;;;5050207;28;20203;-73
2023/07/07 07:52:13;;;;;;;5.00;4.25;;;24.60;99.90;;;;;;5050146;28;20332;-74
2023/07/07 07:54:41;;;;;;;5.18;3.60;;;24.80;99.90;;;;;;5050123;28;20892;-72
2023/07/07 07:57:09;;;;;;;6.63;4.53;;;24.90;99.90;;;;;;5053154;28;20203;-73
2023/07/07 07:59:36;;;;;;;5.95;4.35;;;25.00;99.90;;;;;;5054104;28;20311;-74
2023/07/07 08:02:04;;;;;;;4.65;3.95;;;25.10;99.90;;;;;;5054109;28;20218;-70
2023/07/07 08:04:32;;;;;;;6.90;3.53;;;25.40;99.90;;;;;;5053689;28;20289;-74
2023/07/07 08:06:59;;;;;;;6.32;3.30;;;25.50;99.90;;;;;;5060771;28;20682;-72
2023/07/07 08:09:26;;;;;;;4.45;4.00;;;25.40;99.90;;;;;;5073867;28;20245;-71
2023/07/07 08:11:55;;;;;;;4.80;4.22;;;25.20;99.90;;;;;;5074128;28;20279;-69
2023/07/07 08:14:29;;;;;;;6.68;3.75;;;25.30;99.90;;;;;;5074367;28;20202;-74
2023/07/07 08:16:58;;;;;;;4.70;4.28;;;25.60;99.90;;;;;;5073589;28;20669;-74
2023/07/07 08:19:25;;;;;;;4.60;4.07;;;25.50;99.90;;;;;;5073808;28;20210;-70
2023/07/07 08:21:53;;;;;;;5.43;4.10;;;25.50;99.90;;;;;;5073560;28;20667;-75
2023/07/07 08:24:20;;;;;;;3.80;3.50;;;25.60;99.90;;;;;;5074296;28;20263;-75
2023/07/07 08:26:49;;;;;;;4.05;3.28;;;25.90;99.90;;;;;;5070371;28;20260;-70
2023/07/07 08:29:16;;;;;;;4.47;4.18;;;26.00;99.90;;;;;;5065744;28;20218;-73
2023/07/07 08:31:43;;;;;;;4.60;4.07;;;26.30;99.90;;;;;;5056174;28;20256;-73
2023/07/07 08:34:10;;;;;;;3.95;3.65;;;26.60;99.90;;;;;;5056148;28;20579;-71
2023/07/07 08:36:37;;;;;;;4.38;3.85;;;26.40;99.90;;;;;;5064599;28;20727;-69
2023/07/07 08:39:13;;;;;;;4.13;3.83;;;26.40;99.90;;;;;;5063209;28;20280;-76
2023/07/07 08:41:47;;;;;;;5.95;4.40;;;26.30;99.90;;;;;;5053398;28;20735;-74
2023/07/07 08:44:17;;;;;;;4.95;4.47;;;26.40;99.90;;;;;;5053256;28;20591;-69
2023/07/07 08:46:56;;;;;;;11.02;4.85;;;26.20;99.90;;;;;;5052977;28;20728;-76
2023/07/07 08:49:30;;;;;;;5.03;4.63;;;26.20;99.90;;;;;;5064671;28;20268;-69
2023/07/07 08:52:04;;;;;;;9.38;5.20;;;26.20;99.90;;;;;;5057703;28;20249;-78
2023/07/07 08:54:39;;;;;;;4.43;4.13;;;26.10;99.90;;;;;;5051488;28;20238;-75
2023/07/07 08:57:10;;;;;;;7.65;3.95;;;26.00;99.90;;;;;;5051930;28;20241;-74
2023/07/07 08:59:49;;;;;;;6.38;4.80;;;26.10;99.90;;;;;;5052341;28;20279;-73
2023/07/07 09:02:30;;;;;;;6.15;5.55;;;27.00;99.90;;;;;;5053340;28;20253;-72
2023/07/07 09:05:08;;;;;;;4.50;4.10;;;27.60;99.90;;;;;;5053099;28;20289;-76
2023/07/07 09:07:54;;;;;;;5.10;4.60;;;28.50;99.90;;;;;;5063832;28;20240;-74
2023/07/07 09:10:48;;;;;;;5.85;4.80;;;28.30;99.90;;;;;;5058517;28;20241;-75
2023/07/07 09:13:23;;;;;;;4.50;4.10;;;28.50;99.90;;;;;;5070175;28;20238;-75
2023/07/07 09:16:02;;;;;;;5.57;4.90;;;28.90;99.90;;;;;;5073121;28;20673;-70
2023/07/07 09:18:33;;;;;;;4.60;4.30;;;28.50;99.90;;;;;;5072669;28;20233;-76
2023/07/07 09:21:05;;;;;;;5.38;4.90;;;27.90;99.90;;;;;;5073090;28;20241;-77
2023/07/07 09:23:38;;;;;;;5.00;4.57;;;27.70;99.90;;;;;;5072197;28;20942;-74
2023/07/07 09:26:14;;;;;;;7.00;5.40;;;28.40;99.90;;;;;;5072778;28;20678;-76
2023/07/07 09:28:46;;;;;;;5.35;4.78;;;28.40;99.90;;;;;;5071775;28;20272;-77
2023/07/07 09:31:25;;;;;;;5.72;4.07;;;28.50;99.90;;;;;;5073026;28;20238;-71
2023/07/07 09:33:53;;;;;;;5.68;4.60;;;28.90;99.90;;;;;;5072579;28;20682;-75
2023/07/07 09:36:25;;;;;;;4.35;3.95;;;29.60;99.90;;;;;;5072678;28;20237;-76
2023/07/07 09:39:03;;;;;;;5.40;4.20;;;30.40;99.90;;;;;;5069072;28;20233;-77
2023/07/07 09:41:39;;;;;;;4.88;4.55;;;29.50;99.90;;;;;;5052099;28;20688;-74
2023/07/07 09:44:25;;;;;;;4.35;3.88;;;30.60;99.90;;;;;;5063159;28;20464;-70
2023/07/07 09:47:05;;;;;;;4.18;3.88;;;31.90;99.90;;;;;;5052583;28;20253;-71
2023/07/07 09:49:41;;;;;;;7.35;4.10;;;35.20;99.90;;;;;;5057416;28;20766;-70
2023/07/07 09:52:17;;;;;;;4.03;3.60;;;36.40;99.90;;;;;;5052451;28;20304;-70
2023/07/07 09:54:45;;;;;;;4.80;3.70;;;36.10;99.90;;;;;;5051869;28;20235;-73
2023/07/07 09:57:22;;;;;;;6.18;4.30;;;36.80;99.90;;;;;;5053129;28;20340;-75
2023/07/07 09:59:54;;;;;;;5.43;3.83;;;37.30;99.90;;;;;;5057128;28;20238;-70
2023/07/07 10:02:23;;;;;;;3.88;3.10;;;40.70;99.90;;;;;;5068213;28;20201;-73
2023/07/07 10:04:55;;;;;;;3.85;3.55;;;41.50;99.90;;;;;;5052078;28;20242;-72
2023/07/07 10:07:22;;;;;;;3.97;3.60;;;40.60;99.90;;;;;;5061393;28;20697;-72
2023/07/07 10:09:49;;;;;;;3.63;3.33;;;39.50;99.90;;;;;;5072108;28;20213;-70
2023/07/07 10:12:18;;;;;;;3.35;3.05;;;38.00;99.90;;;;;;5071873;28;20291;-76
2023/07/07 10:14:48;;;;;;;3.47;3.17;;;38.50;99.90;;;;;;5071916;28;20202;-76
2023/07/07 10:17:26;;;;;;;3.80;2.95;;;40.00;99.90;;;;;;5072057;28;20197;-76
2023/07/07 10:19:56;;;;;;;4.72;3.47;;;37.00;99.90;;;;;;5071297;28;20741;-76
2023/07/07 10:22:24;;;;;;;7.47;3.00;;;37.70;99.90;;;;;;5071572;28;20237;-71
2023/07/07 10:24:51;;;;;;;7.97;3.65;;;37.80;99.90;;;;;;5071606;28;20237;-70
2023/07/07 10:27:22;;;;;;;3.15;2.50;;;37.70;99.90;;;;;;5071744;28;20264;-74
2023/07/07 10:29:50;;;;;;;4.68;3.45;;;39.70;99.90;;;;;;5072027;28;20237;-75
2023/07/07 10:32:20;;;;;;;4.53;4.07;;;38.20;99.90;;;;;;5070801;28;20227;-76
2023/07/07 10:34:48;;;;;;;4.57;3.42;;;34.10;99.90;;;;;;5059873;28;20291;-74
2023/07/07 10:37:19;;;;;;;4.45;4.05;;;32.50;99.90;;;;;;5051397;28;20216;-75
2023/07/07 10:39:51;;;;;;;3.78;3.38;;;31.50;99.90;;;;;;5051454;28;20210;-76
2023/07/07 10:42:23;;;;;;;3.53;2.72;;;30.40;99.90;;;;;;5051356;28;20234;-75
2023/07/07 10:44:50;;;;;;;3.92;3.53;;;30.10;99.90;;;;;;5051423;28;20206;-70
2023/07/07 10:47:23;;;;;;;4.38;2.97;;;29.80;99.90;;;;;;5051946;28;20687;-75
2023/07/07 10:49:51;;;;;;;3.65;2.58;;;29.20;99.90;;;;;;5051424;28;20256;-71
2023/07/07 10:52:38;;;;;;;5.72;3.90;;;29.60;99.90;;;;;;5051422;28;20206;-72
2023/07/07 10:55:10;;;;;;;5.47;3.60;;;29.90;99.90;;;;;;5050885;28;20694;-77
2023/07/07 10:57:51;;;;;;;3.50;3.10;;;29.90;99.90;;;;;;5052405;28;20272;-79
2023/07/07 11:00:33;;;;;;;3.30;2.80;;;29.90;99.90;;;;;;5051358;28;20245;-78
2023/07/07 11:03:34;;;;;;;2.80;2.58;;;29.70;99.90;;;;;;5050836;28;20638;-72
2023/07/07 11:06:08;;;;;;;3.58;2.92;;;29.60;99.90;;;;;;5043649;28;20255;-74
2023/07/07 11:08:50;;;;;;;2.92;2.55;;;29.90;99.90;;;;;;5069829;28;20773;-75
2023/07/07 11:11:25;;;;;;;3.53;3.10;;;30.20;99.90;;;;;;5071267;28;20241;-71
2023/07/07 11:14:11;;;;;;;4.78;2.42;;;30.20;99.90;;;;;;5071032;28;20602;-76
2023/07/07 11:16:48;;;;;;;2.90;2.65;;;30.20;99.90;;;;;;5070509;28;20241;-72
2023/07/07 11:19:29;;;;;;;3.35;3.05;;;30.30;99.90;;;;;;5071186;28;20296;-75
2023/07/07 11:22:08;;;;;;;3.28;2.97;;;30.40;99.90;;;;;;5068227;28;20637;-74
2023/07/07 11:24:42;;;;;;;3.10;2.85;;;30.60;99.90;;;;;;5070207;28;20212;-76
2023/07/07 11:27:31;;;;;;;4.10;2.90;;;30.30;99.90;;;;;;5070495;28;20237;-77
2023/07/07 11:30:11;;;;;;;6.53;2.75;;;30.30;99.90;;;;;;5070899;28;20264;-75
2023/07/07 11:32:44;;;;;;;3.55;2.30;;;30.30;99.90;;;;;;5069608;28;20223;-76
2023/07/07 11:35:46;;;;;;;4.82;2.75;;;30.40;99.90;;;;;;5070482;28;20270;-78
2023/07/07 11:38:48;;;;;;;4.25;2.65;;;30.70;99.90;;;;;;5070414;28;20208;-76
2023/07/07 11:41:24;;;;;;;3.38;2.67;;;30.60;99.90;;;;;;5053152;28;20241;-77
2023/07/07 11:44:31;;;;;;;3.25;2.10;;;30.70;99.90;;;;;;5065775;28;20260;-73
2023/07/07 11:47:23;;;;;;;2.33;2.13;;;30.40;99.90;;;;;;5050247;28;20264;-71
2023/07/07 11:50:05;;;;;;;2.72;2.50;;;30.40;99.90;;;;;;5061051;28;20245;-70
2023/07/07 11:52:47;;;;;;;4.35;2.85;;;30.50;99.90;;;;;;5049294;28;20238;-70
2023/07/07 11:55:27;;;;;;;3.70;2.38;;;30.40;99.90;;;;;;5050264;28;20252;-69
2023/07/07 11:58:06;;;;;;;3.30;3.00;;;30.70;99.90;;;;;;5050191;28;20230;-74
2023/07/07 12:00:49;;;;;;;2.92;2.72;;;31.10;99.90;;;;;;5057262;28;20293;-70
2023/07/07 12:03:40;;;;;;;4.53;2.67;;;30.80;99.90;;;;;;5050410;28;20682;-75
2023/07/07 12:06:16;;;;;;;3.47;2.78;;;31.10;99.90;;;;;;5050207;28;20238;-71
2023/07/07 12:08:56;;;;;;;3.38;2.95;;;30.80;99.90;;;;;;5056488;28;20290;-77
2023/07/07 12:11:24;;;;;;;5.63;2.72;;;30.30;99.90;;;;;;5069927;28;20211;-72
2023/07/07 12:14:00;;;;;;;3.10;2.42;;;30.30;99.90;;;;;;5069891;28;20653;-70
2023/07/07 12:16:30;;;;;;;4.82;2.63;;;30.30;99.90;;;;;;5069583;28;20652;-72
2023/07/07 12:19:11;;;;;;;3.22;2.78;;;30.30;99.90;;;;;;5049941;28;20203;-69
2023/07/07 12:21:39;;;;;;;3.28;2.30;;;30.30;99.90;;;;;;5049184;28;20250;-70
2023/07/07 12:24:16;;;;;;;2.80;2.45;;;30.60;99.90;;;;;;5062235;28;20234;-73
2023/07/07 12:26:49;;;;;;;3.88;2.38;;;30.60;99.90;;;;;;5050191;28;20759;-71
2023/07/07 12:29:17;;;;;;;2.97;2.45;;;30.40;99.90;;;;;;5050206;28;20292;-71
2023/07/07 12:31:45;;;;;;;4.25;2.45;;;30.50;99.90;;;;;;5049411;28;20210;-69
2023/07/07 12:34:36;;;;;;;3.75;2.72;;;30.40;99.90;;;;;;5049700;28;20222;-71
2023/07/07 12:37:06;;;;;;;2.13;2.03;;;30.60;99.90;;;;;;5054114;28;20685;-70
2023/07/07 12:39:36;;;;;;;3.50;2.60;;;31.00;99.90;;;;;;5049724;28;20293;-70
2023/07/07 12:42:04;;;;;;;4.65;2.20;;;31.00;99.90;;;;;;5049522;28;20202;-71
2023/07/07 12:44:32;;;;;;;6.13;2.80;;;30.70;99.90;;;;;;5050524;28;20202;-70
2023/07/07 12:46:59;;;;;;;3.25;2.97;;;30.40;99.90;;;;;;5053613;28;20206;-70
2023/07/07 12:49:36;;;;;;;3.33;3.03;;;30.60;99.90;;;;;;5053179;28;20240;-71
2023/07/07 12:52:04;;;;;;;3.55;2.72;;;30.50;99.90;;;;;;5052965;28;20198;-71
2023/07/07 12:54:32;;;;;;;4.05;2.72;;;30.70;99.90;;;;;;5052987;28;20202;-71
2023/07/07 12:57:02;;;;;;;18.27;4.38;;;30.80;99.90;;;;;;5053413;28;20242;-69
2023/07/07 12:59:36;;;;;;;4.07;2.63;;;31.00;99.90;;;;;;5052912;28;20264;-74
2023/07/07 13:02:14;;;;;;;5.45;2.63;;;31.10;99.90;;;;;;5053436;28;20241;-69
2023/07/07 13:04:49;;;;;;;3.05;2.80;;;31.10;99.90;;;;;;5052549;28;20236;-71
2023/07/07 13:07:21;;;;;;;4.38;2.03;;;31.10;99.90;;;;;;5062319;28;20621;-72